EKAH/AAR METAR and TAF weather

Enter ICAO airport designator
Station Type Date Time Source
EKAH METAR 2019/09/21 04:50 UTC NOAA

EKAH 210450Z AUTO 28010KT 8000NDV BKN005/// 11/11 Q1020


Station Type Date Time Source
EKAH Decoded METAR 2019/09/21 04:50 UTC NOAA

Tirstrup, Denmark (EKAH) 56-18N 010-37E 25M
Sep 21, 2019 - 12:50 AM EDT / 2019.09.21 0450 UTC
Wind: from the W (280 degrees) at 12 MPH (10 KT):0
Sky conditions: mostly cloudy
Temperature: 51 F (11 C)
Dew Point: 51 F (11 C)
Relative Humidity: 100%
Pressure (altimeter): 30.12 in. Hg (1020 hPa)
ob: EKAH 210450Z AUTO 28010KT 8000NDV BKN005/// 11/11 Q1020
cycle: 5

Station Type Date Time Source
EKAH TAF 2019/09/21 02:50 UTC NOAA

TAF
AMD EKAH 210143Z 2102/2124 28008KT 9999 SCT015
TEMPO 2102/2107 2000 BR BKN004
TEMPO 2108/2110 BKN012
BECMG 2122/2124 2500 BR

Example: see airport list